Time;durP1;ratioP1;P1;durP2;ratioP2;P2;SDS_P1;SDS_P2;PMS_P1;PMS_P2;Temp;Humidity;BMP_temperature;BMP_pressure;BME280_temperature;BME280_humidity;BME280_pressure;Samples;Min_cycle;Max_cycle;Signal;HPM_P1;HPM_P2
2022/03/16 00:01:29;;;;;;;31.58;18.75;;;;;;;2.62;100.00;101027.28;5075378;28;20025;-79
2022/03/16 00:03:54;;;;;;;32.33;19.83;;;;;;;2.61;100.00;101030.75;5057714;28;20044;-79
2022/03/16 00:06:19;;;;;;;32.13;19.23;;;;;;;2.60;100.00;101031.66;5074607;28;20047;-79
2022/03/16 00:08:44;;;;;;;33.20;19.30;;;;;;;2.64;100.00;101037.00;5075737;28;20047;-79
2022/03/16 00:11:10;;;;;;;33.08;19.90;;;;;;;2.70;100.00;101036.19;5076091;28;20029;-79
2022/03/16 00:13:35;;;;;;;30.40;19.55;;;;;;;2.72;100.00;101037.09;5075387;28;20067;-79
2022/03/16 00:16:00;;;;;;;30.13;19.45;;;;;;;2.70;100.00;101043.22;5058433;28;20033;-79
2022/03/16 00:18:26;;;;;;;34.22;18.70;;;;;;;2.71;100.00;101031.78;5070000;28;20021;-78
2022/03/16 00:20:52;;;;;;;29.05;19.40;;;;;;;2.78;100.00;101044.22;5073208;28;20075;-79
2022/03/16 00:23:17;;;;;;;31.60;19.15;;;;;;;2.77;100.00;101043.34;5073601;28;20036;-78
2022/03/16 00:25:42;;;;;;;29.67;17.60;;;;;;;2.74;100.00;101038.00;5074501;28;20063;-78
2022/03/16 00:28:08;;;;;;;31.33;18.75;;;;;;;2.72;100.00;101039.75;5074006;28;20065;-79
2022/03/16 00:30:33;;;;;;;31.73;18.13;;;;;;;2.49;100.00;101050.81;5056620;28;20051;-79
2022/03/16 00:32:59;;;;;;;30.23;18.63;;;;;;;2.39;100.00;101047.16;5057131;28;20029;-80
2022/03/16 00:35:25;;;;;;;29.10;18.70;;;;;;;1.95;100.00;101054.31;5075061;28;20021;-79
2022/03/16 00:37:50;;;;;;;33.85;19.52;;;;;;;1.81;100.00;101056.69;5074044;28;20032;-79
2022/03/16 00:40:16;;;;;;;36.30;22.55;;;;;;;1.93;100.00;101053.41;5075098;28;20025;-79
2022/03/16 00:42:41;;;;;;;39.50;23.52;;;;;;;2.02;100.00;101060.59;5057117;28;20028;-79
2022/03/16 00:45:07;;;;;;;36.80;23.45;;;;;;;2.10;100.00;101053.72;5057176;28;20043;-79
2022/03/16 00:47:32;;;;;;;44.47;25.27;;;;;;;2.17;100.00;101054.69;5074849;28;20020;-79
2022/03/16 00:49:57;;;;;;;41.53;25.05;;;;;;;2.21;100.00;101058.28;5075420;28;20029;-79
2022/03/16 00:52:22;;;;;;;37.75;23.17;;;;;;;2.21;100.00;101058.28;5056705;28;20024;-79
2022/03/16 00:54:48;;;;;;;41.92;23.30;;;;;;;2.22;100.00;101055.66;5056935;28;20021;-79
2022/03/16 00:57:13;;;;;;;37.20;23.17;;;;;;;2.18;100.00;101066.13;5051007;28;20001;-78
2022/03/16 00:59:39;;;;;;;37.97;21.63;;;;;;;2.05;100.00;101065.03;5054702;28;20032;-78
2022/03/16 01:02:05;;;;;;;34.45;20.77;;;;;;;2.00;100.00;101071.09;5072847;28;20024;-78
2022/03/16 01:04:30;;;;;;;34.45;20.38;;;;;;;2.11;100.00;101071.28;5072917;28;20020;-79
2022/03/16 01:06:56;;;;;;;32.60;19.95;;;;;;;1.87;100.00;101062.09;5073586;28;20051;-79
2022/03/16 01:09:21;;;;;;;36.83;20.60;;;;;;;1.63;100.00;101066.00;5073475;28;20059;-79
2022/03/16 01:11:46;;;;;;;32.75;19.52;;;;;;;1.49;100.00;101065.75;5073300;28;20021;-79
2022/03/16 01:14:12;;;;;;;31.80;19.48;;;;;;;1.39;100.00;101072.56;5073887;28;20024;-79
2022/03/16 01:16:39;;;;;;;34.15;21.10;;;;;;;1.31;100.00;101068.91;5056399;28;20027;-79
2022/03/16 01:19:05;;;;;;;33.03;21.67;;;;;;;1.31;100.00;101074.16;5056621;28;20044;-79
2022/03/16 01:21:31;;;;;;;35.58;22.42;;;;;;;1.35;100.00;101065.47;5057158;28;20088;-79
2022/03/16 01:23:56;;;;;;;40.85;23.00;;;;;;;1.38;100.00;101076.06;5073996;28;20478;-79
2022/03/16 01:26:21;;;;;;;47.53;24.50;;;;;;;1.41;100.00;101060.34;5073760;28;20047;-79
2022/03/16 01:28:46;;;;;;;41.83;24.00;;;;;;;1.48;100.00;101065.72;5073794;28;20041;-79
2022/03/16 01:31:12;;;;;;;35.83;23.05;;;;;;;1.52;100.00;101064.94;5057265;28;20120;-79
2022/03/16 01:33:37;;;;;;;43.80;25.60;;;;;;;1.59;100.00;101063.28;5069866;28;20036;-79
2022/03/16 01:36:03;;;;;;;47.22;26.90;;;;;;;1.72;100.00;101060.06;5070750;28;20017;-79
2022/03/16 01:38:28;;;;;;;51.95;28.55;;;;;;;1.86;100.00;101062.94;5071910;28;20028;-79
2022/03/16 01:40:53;;;;;;;58.90;29.88;;;;;;;2.01;100.00;101067.59;5072850;28;20028;-79
2022/03/16 01:43:19;;;;;;;52.40;30.20;;;;;;;2.04;100.00;101069.41;5055646;28;20021;-79
2022/03/16 01:45:49;;;;;;;48.97;28.85;;;;;;;1.99;100.00;101066.69;5055071;28;20021;-79
2022/03/16 01:48:14;;;;;;;52.58;28.50;;;;;;;2.01;100.00;101075.50;5055388;28;20020;-80
2022/03/16 01:50:40;;;;;;;46.38;28.25;;;;;;;2.00;100.00;101086.03;5054935;28;20051;-79
2022/03/16 01:53:06;;;;;;;47.72;27.42;;;;;;;1.93;100.00;101077.13;5072894;28;20048;-79
2022/03/16 01:55:31;;;;;;;44.55;26.63;;;;;;;1.89;100.00;101073.53;5055890;28;20389;-80
2022/03/16 01:57:57;;;;;;;52.53;25.70;;;;;;;1.78;100.00;101081.22;5056001;28;20025;-79
2022/03/16 02:00:23;;;;;;;44.25;25.35;;;;;;;1.74;100.00;101073.25;5072561;28;20044;-79
2022/03/16 02:02:48;;;;;;;42.25;25.00;;;;;;;1.67;100.00;101078.41;5073170;28;20085;-79
2022/03/16 02:05:13;;;;;;;43.65;26.13;;;;;;;1.65;100.00;101080.09;5073206;28;20036;-79
2022/03/16 02:07:41;;;;;;;39.10;24.05;;;;;;;1.66;100.00;101073.97;5055561;28;20005;-79
2022/03/16 02:10:07;;;;;;;37.25;22.90;;;;;;;1.57;100.00;101079.06;5072658;28;20080;-79
2022/03/16 02:12:46;;;;;;;38.38;22.85;;;;;;;1.42;100.00;101072.63;5068092;28;20029;-78
2022/03/16 02:15:11;;;;;;;40.55;23.52;;;;;;;1.44;100.00;101073.53;5053999;28;20032;-79
2022/03/16 02:17:37;;;;;;;43.88;24.55;;;;;;;1.40;100.00;101079.59;5070978;28;20021;-79
2022/03/16 02:20:03;;;;;;;40.63;22.98;;;;;;;1.30;100.00;101072.38;5071928;28;20035;-78
2022/03/16 02:22:30;;;;;;;35.72;22.40;;;;;;;1.33;100.00;101073.34;5072460;28;20024;-79
2022/03/16 02:24:55;;;;;;;35.97;22.13;;;;;;;1.31;100.00;101074.16;5054465;28;20005;-79
2022/03/16 02:27:20;;;;;;;38.08;23.33;;;;;;;1.28;100.00;101074.97;5072086;28;20029;-79
2022/03/16 02:29:46;;;;;;;36.95;22.70;;;;;;;1.22;100.00;101083.63;5072677;28;20016;-80
2022/03/16 02:32:11;;;;;;;36.33;20.63;;;;;;;1.15;100.00;101076.47;5055410;28;20029;-79
2022/03/16 02:34:37;;;;;;;38.25;21.25;;;;;;;1.10;100.00;101071.09;5054307;28;20056;-79
2022/03/16 02:37:02;;;;;;;35.35;20.33;;;;;;;0.98;100.00;101074.31;5073186;28;20036;-79
2022/03/16 02:39:28;;;;;;;38.13;20.42;;;;;;;0.83;100.00;101074.88;5072526;28;20025;-79
2022/03/16 02:41:53;;;;;;;65.93;21.10;;;;;;;0.61;100.00;101070.84;5073867;28;20029;-79
2022/03/16 02:44:19;;;;;;;33.42;19.70;;;;;;;0.54;100.00;101064.56;5072717;28;20009;-79
2022/03/16 02:46:44;;;;;;;32.45;18.58;;;;;;;0.48;100.00;101065.31;5055949;28;20017;-79
2022/03/16 02:49:09;;;;;;;29.38;18.70;;;;;;;0.53;100.00;101068.94;5052393;28;20033;-78
2022/03/16 02:51:34;;;;;;;32.97;19.77;;;;;;;0.53;100.00;101063.69;5051693;28;20028;-79
2022/03/16 02:54:00;;;;;;;36.90;19.98;;;;;;;0.53;100.00;101063.69;5070832;28;20025;-78
2022/03/16 02:56:27;;;;;;;34.05;20.48;;;;;;;0.60;100.00;101061.19;5054539;28;20021;-79
2022/03/16 02:58:52;;;;;;;31.90;20.27;;;;;;;0.60;100.00;101058.56;5054649;28;20039;-79
2022/03/16 03:01:18;;;;;;;39.97;21.27;;;;;;;0.57;100.00;101063.75;5071597;28;20029;-79
2022/03/16 03:03:43;;;;;;;36.55;21.88;;;;;;;0.58;100.00;101065.53;5054550;28;20017;-78
2022/03/16 03:06:08;;;;;;;37.40;21.55;;;;;;;0.46;100.00;101066.13;5072718;28;20024;-79
2022/03/16 03:08:34;;;;;;;44.15;21.60;;;;;;;0.32;100.00;101064.94;5072935;28;20013;-79
2022/03/16 03:11:00;;;;;;;41.70;22.95;;;;;;;0.35;100.00;101055.34;5055389;28;20108;-79
2022/03/16 03:13:26;;;;;;;37.35;20.42;;;;;;;0.29;100.00;101063.94;5072369;28;20025;-79
2022/03/16 03:15:51;;;;;;;33.42;20.17;;;;;;;0.27;100.00;101069.19;5073219;28;20036;-79
2022/03/16 03:18:17;;;;;;;36.83;20.48;;;;;;;0.27;100.00;101066.56;5073313;28;20043;-79
2022/03/16 03:20:42;;;;;;;40.20;23.08;;;;;;;0.32;100.00;101071.91;5072784;28;20045;-79
2022/03/16 03:23:07;;;;;;;42.13;24.02;;;;;;;0.34;100.00;101067.56;5072856;28;20047;-79
2022/03/16 03:25:33;;;;;;;48.85;25.00;;;;;;;0.43;100.00;101074.81;5055054;28;20009;-79
2022/03/16 03:27:58;;;;;;;55.40;25.52;;;;;;;0.52;100.00;101071.50;5068136;28;20085;-78
2022/03/16 03:30:23;;;;;;;48.42;24.05;;;;;;;0.58;100.00;101076.03;5073968;28;20088;-78
2022/03/16 03:32:49;;;;;;;49.60;24.60;;;;;;;0.57;100.00;101088.28;5074197;28;20024;-79
2022/03/16 03:35:14;;;;;;;54.28;24.58;;;;;;;0.62;100.00;101080.53;5057442;28;20025;-79
2022/03/16 03:37:39;;;;;;;51.92;24.65;;;;;;;0.64;100.00;101091.97;5075167;28;20036;-79
2022/03/16 03:40:05;;;;;;;54.22;24.77;;;;;;;0.65;100.00;101093.72;5075811;28;20025;-79
2022/03/16 03:42:31;;;;;;;56.25;25.15;;;;;;;0.63;100.00;101090.19;5076152;28;20036;-78
2022/03/16 03:44:56;;;;;;;47.42;23.10;;;;;;;0.62;100.00;101091.91;5076160;28;20060;-79
2022/03/16 03:47:21;;;;;;;45.92;22.80;;;;;;;0.58;100.00;101091.81;5076820;28;20020;-79
2022/03/16 03:49:47;;;;;;;41.63;21.98;;;;;;;0.54;100.00;101091.72;5059113;28;20032;-79
2022/03/16 03:52:12;;;;;;;38.10;20.23;;;;;;;0.50;100.00;101084.63;5076248;28;20035;-79
2022/03/16 03:54:37;;;;;;;40.22;21.38;;;;;;;0.40;100.00;101082.63;5075654;28;20501;-79
2022/03/16 03:57:04;;;;;;;41.88;20.90;;;;;;;0.44;100.00;101076.56;5075680;28;20017;-79
2022/03/16 03:59:29;;;;;;;42.05;21.50;;;;;;;0.46;100.00;101076.63;5076117;28;20080;-79
2022/03/16 04:01:54;;;;;;;47.67;23.52;;;;;;;0.47;100.00;101076.66;5076051;28;20032;-79
2022/03/16 04:04:20;;;;;;;46.10;23.77;;;;;;;0.41;100.00;101079.16;5075161;28;20028;-79
2022/03/16 04:06:45;;;;;;;45.30;23.25;;;;;;;0.39;100.00;101080.81;5050257;28;20163;-79
2022/03/16 04:09:11;;;;;;;45.88;22.20;;;;;;;0.35;100.00;101084.25;5055673;28;20119;-79
2022/03/16 04:11:37;;;;;;;45.47;22.27;;;;;;;0.34;100.00;101088.59;5056500;28;20029;-79
2022/03/16 04:14:03;;;;;;;42.45;21.80;;;;;;;0.40;100.00;101093.13;5070088;28;20021;-79
2022/03/16 04:16:29;;;;;;;40.80;21.45;;;;;;;0.39;100.00;101091.34;5050564;28;20017;-79
2022/03/16 04:18:54;;;;;;;38.63;21.48;;;;;;;0.37;100.00;101104.44;5072973;28;20021;-79
2022/03/16 04:21:20;;;;;;;38.22;21.55;;;;;;;0.37;100.00;101103.56;5054856;28;20025;-79
2022/03/16 04:23:45;;;;;;;37.83;20.80;;;;;;;0.37;100.00;101108.81;5069370;28;20055;-78
2022/03/16 04:26:10;;;;;;;41.35;21.67;;;;;;;0.33;100.00;101118.38;5068879;28;20017;-79
2022/03/16 04:28:36;;;;;;;42.72;22.00;;;;;;;0.30;100.00;101121.81;5068706;28;20044;-79
2022/03/16 04:31:02;;;;;;;38.03;20.50;;;;;;;0.40;100.00;101127.28;5069741;28;20032;-79
2022/03/16 04:33:28;;;;;;;39.58;21.40;;;;;;;0.40;100.00;101129.91;5071036;28;20039;-79
2022/03/16 04:35:54;;;;;;;36.95;21.73;;;;;;;0.39;100.00;101133.38;5053505;28;20071;-79
2022/03/16 04:38:19;;;;;;;38.00;19.55;;;;;;;0.29;100.00;101135.78;5053649;28;20024;-79
2022/03/16 04:40:46;;;;;;;35.58;19.52;;;;;;;0.28;100.00;101128.75;5070445;28;20025;-79
2022/03/16 04:43:11;;;;;;;34.35;19.30;;;;;;;0.21;100.00;101126.78;5049235;28;20032;-78
2022/03/16 04:45:38;;;;;;;42.47;22.85;;;;;;;0.15;100.00;101124.91;5047162;28;20025;-78
2022/03/16 04:48:08;;;;;;;39.42;20.10;;;;;;;0.08;100.00;101122.94;5065799;28;20025;-79
2022/03/16 04:50:41;;;;;;;35.15;19.55;;;;;;;0.03;100.00;101129.81;5044030;28;20021;-78
2022/03/16 04:53:07;;;;;;;32.58;18.48;;;;;;;0.07;100.00;101127.34;5051871;28;20056;-80
2022/03/16 04:55:35;;;;;;;35.45;19.90;;;;;;;-0.01;100.00;101134.13;5051914;28;20025;-80
2022/03/16 04:58:02;;;;;;;37.60;20.75;;;;;;;-0.06;100.00;101134.00;5070765;28;20029;-80
2022/03/16 05:00:27;;;;;;;36.65;20.73;;;;;;;-0.02;100.00;101127.97;5052716;28;20025;-80
2022/03/16 05:02:52;;;;;;;38.78;19.95;;;;;;;-0.01;100.00;101134.13;5069957;28;20059;-80
2022/03/16 05:05:18;;;;;;;45.47;21.48;;;;;;;0.03;100.00;101130.72;5070207;28;20021;-79
2022/03/16 05:07:43;;;;;;;41.75;20.30;;;;;;;0.05;100.00;101122.91;5067999;28;20386;-79
2022/03/16 05:10:09;;;;;;;34.42;19.48;;;;;;;-0.07;100.00;101133.94;5050988;28;20039;-79
2022/03/16 05:12:41;;;;;;;38.50;19.38;;;;;;;-0.14;100.00;101127.63;5068589;28;20017;-80
2022/03/16 05:15:09;;;;;;;42.53;23.05;;;;;;;-0.15;100.00;101133.72;5068044;28;20043;-79
2022/03/16 05:17:35;;;;;;;40.17;21.63;;;;;;;-0.14;100.00;101127.63;5068789;28;20021;-79
2022/03/16 05:20:00;;;;;;;38.92;20.40;;;;;;;-0.37;100.00;101134.03;5068188;28;20036;-79
2022/03/16 05:22:25;;;;;;;129.95;23.58;;;;;;;-0.55;100.00;101129.13;5061434;28;20029;-79
2022/03/16 05:24:51;;;;;;;195.20;28.13;;;;;;;-0.77;100.00;101130.22;5045319;28;20445;-78
2022/03/16 05:27:19;;;;;;;394.38;36.72;;;;;;;-1.00;100.00;101127.78;5044333;28;20052;-80
2022/03/16 05:29:45;;;;;;;125.97;25.80;;;;;;;-1.07;100.00;101132.81;5067724;28;20029;-80
2022/03/16 05:32:10;;;;;;;109.10;22.20;;;;;;;-1.09;100.00;101138.84;5049524;28;20028;-80
2022/03/16 05:34:35;;;;;;;110.63;22.90;;;;;;;-1.07;100.00;101142.41;5049285;28;20108;-79
2022/03/16 05:37:00;;;;;;;58.70;20.30;;;;;;;-1.11;100.00;101140.53;5066455;28;20401;-79
2022/03/16 05:39:26;;;;;;;43.45;19.52;;;;;;;-1.08;100.00;101128.41;5068661;28;20029;-78
2022/03/16 05:41:51;;;;;;;45.22;19.58;;;;;;;-1.11;100.00;101127.44;5068253;28;20451;-79
2022/03/16 05:44:16;;;;;;;44.95;20.25;;;;;;;-1.04;100.00;101132.00;5050099;28;20127;-80
2022/03/16 05:46:42;;;;;;;50.08;21.25;;;;;;;-0.95;100.00;101142.78;5065907;28;20025;-79
2022/03/16 05:49:07;;;;;;;47.00;22.00;;;;;;;-0.86;100.00;101136.94;5048245;28;20501;-79
2022/03/16 05:51:32;;;;;;;50.03;21.52;;;;;;;-0.81;100.00;101131.84;5063821;28;20028;-79
2022/03/16 05:53:57;;;;;;;52.30;23.10;;;;;;;-0.69;100.00;101126.06;5064538;28;20021;-78
2022/03/16 05:56:23;;;;;;;57.42;23.27;;;;;;;-0.64;100.00;101137.59;5046264;28;20028;-80
2022/03/16 05:58:48;;;;;;;42.60;21.27;;;;;;;-0.61;100.00;101135.06;5065014;28;20049;-78
2022/03/16 06:01:13;;;;;;;49.97;21.60;;;;;;;-0.54;100.00;101133.50;5067327;28;20025;-79
2022/03/16 06:03:39;;;;;;;60.88;22.58;;;;;;;-0.53;100.00;101137.03;5067529;28;20043;-79
2022/03/16 06:06:05;;;;;;;49.80;22.48;;;;;;;-0.52;100.00;101147.59;5069535;28;20027;-79
2022/03/16 06:08:30;;;;;;;50.72;23.00;;;;;;;-0.49;100.00;101136.28;5069033;28;20029;-79
2022/03/16 06:10:55;;;;;;;49.72;22.90;;;;;;;-0.42;100.00;101137.34;5069650;28;20040;-79
2022/03/16 06:13:21;;;;;;;51.05;22.15;;;;;;;-0.42;100.00;101137.34;5069317;28;20021;-79
2022/03/16 06:15:47;;;;;;;52.30;23.48;;;;;;;-0.42;100.00;101148.75;5069788;28;20032;-79
2022/03/16 06:18:12;;;;;;;58.53;24.60;;;;;;;-0.36;100.00;101148.91;5051931;28;20550;-80
2022/03/16 06:20:39;;;;;;;53.42;23.52;;;;;;;-0.32;100.00;101154.25;5049064;28;20029;-79
2022/03/16 06:23:05;;;;;;;48.25;22.63;;;;;;;-0.27;100.00;101156.16;5049369;28;20021;-79
2022/03/16 06:25:32;;;;;;;54.60;22.90;;;;;;;-0.27;100.00;101160.53;5048448;28;20036;-79
2022/03/16 06:28:00;;;;;;;45.45;23.73;;;;;;;-0.27;100.00;101155.28;5085667;22;20495;-82
2022/03/16 06:30:35;;;;;;;56.95;25.25;;;;;;;-0.21;100.00;101162.44;5026448;28;20034;-83
2022/03/16 06:33:04;;;;;;;55.85;24.48;;;;;;;-0.15;100.00;101163.50;5013784;28;20425;-84
2022/03/16 06:35:54;;;;;;;;;;;;;;;;;;;;;
2022/03/16 06:38:26;;;;;;;56.30;23.42;;;;;;;-0.07;100.00;101170.69;5029562;28;20053;-84
2022/03/16 06:41:00;;;;;;;58.15;27.38;;;;;;;-0.03;100.00;101175.19;5012413;28;20455;-84
2022/03/16 06:43:28;;;;;;;52.80;24.48;;;;;;;0.01;100.00;101166.56;5030051;28;20022;-85
2022/03/16 06:45:56;;;;;;;57.55;25.63;;;;;;;0.05;100.00;101171.03;5008386;28;20029;-83
2022/03/16 06:48:46;;;;;;;53.00;25.13;;;;;;;0.12;100.00;101192.22;5006884;28;20057;-84
2022/03/16 06:51:18;;;;;;;66.57;27.23;;;;;;;0.28;100.00;101191.81;5022167;28;20034;-84
2022/03/16 06:53:53;;;;;;;61.45;28.20;;;;;;;0.39;100.00;101197.34;4998559;28;20026;-83
2022/03/16 06:56:22;;;;;;;62.78;27.27;;;;;;;0.48;100.00;101193.19;5049458;22;20045;-82
2022/03/16 06:58:49;;;;;;;70.88;31.70;;;;;;;0.54;100.00;101191.59;5064392;28;20033;-82
2022/03/16 07:01:14;;;;;;;67.78;29.25;;;;;;;0.59;100.00;101198.72;5044924;28;20036;-81
2022/03/16 07:03:39;;;;;;;69.15;31.30;;;;;;;0.69;100.00;101192.88;5050064;28;20029;-82
2022/03/16 07:06:04;;;;;;;77.25;31.25;;;;;;;0.78;100.00;101195.72;5053310;28;20029;-81
2022/03/16 07:08:30;;;;;;;70.30;31.42;;;;;;;0.92;100.00;101204.81;5056911;28;20425;-81
2022/03/16 07:10:55;;;;;;;73.57;32.55;;;;;;;1.04;100.00;101198.94;5055825;28;20025;-80
2022/03/16 07:13:20;;;;;;;61.33;29.60;;;;;;;1.02;100.00;101198.03;5055113;28;20028;-82
2022/03/16 07:15:46;;;;;;;63.45;31.15;;;;;;;1.10;100.00;101207.00;5051792;28;20025;-80
2022/03/16 07:18:12;;;;;;;67.30;30.15;;;;;;;1.13;100.00;101198.28;5075215;28;20025;-81
2022/03/16 07:20:37;;;;;;;62.70;29.48;;;;;;;1.11;100.00;101204.41;5054446;28;20401;-82
2022/03/16 07:23:14;;;;;;;67.00;30.08;;;;;;;1.18;100.00;101205.44;5046569;28;20025;-82
2022/03/16 07:25:41;;;;;;;65.60;31.85;;;;;;;1.29;100.00;101199.56;5071091;28;20481;-81
2022/03/16 07:28:08;;;;;;;71.63;32.63;;;;;;;1.32;100.00;101202.22;5087697;28;20050;-81
2022/03/16 07:30:33;;;;;;;66.80;31.63;;;;;;;1.35;100.00;101207.56;5068059;28;20111;-81
2022/03/16 07:32:59;;;;;;;67.28;30.92;;;;;;;1.43;100.00;101211.28;5084259;28;20109;-80
2022/03/16 07:35:26;;;;;;;68.63;32.50;;;;;;;1.53;100.00;101206.22;5083364;28;20031;-81
2022/03/16 07:37:53;;;;;;;68.57;31.60;;;;;;;1.64;100.00;101214.34;5064769;28;20143;-80
2022/03/16 07:40:19;;;;;;;72.22;31.58;;;;;;;1.63;100.00;101208.19;5083471;28;20024;-80
2022/03/16 07:42:46;;;;;;;70.47;33.53;;;;;;;1.83;100.00;101220.91;5064628;28;20052;-81
2022/03/16 07:45:12;;;;;;;77.07;35.22;;;;;;;1.96;100.00;101222.03;5055565;28;20024;-80
2022/03/16 07:47:37;;;;;;;71.72;32.85;;;;;;;2.12;100.00;101217.97;5063454;28;20024;-81
2022/03/16 07:50:03;;;;;;;67.60;32.40;;;;;;;2.22;100.00;101215.53;5063220;28;20033;-80
2022/03/16 07:52:28;;;;;;;70.85;32.65;;;;;;;2.34;100.00;101209.63;5062512;28;20025;-81
2022/03/16 07:54:54;;;;;;;67.60;31.98;;;;;;;2.58;100.00;101210.06;5062749;28;20516;-82
2022/03/16 07:57:19;;;;;;;67.00;32.13;;;;;;;2.75;100.00;101216.50;5062630;28;20044;-80
2022/03/16 07:59:45;;;;;;;62.05;29.70;;;;;;;2.84;100.00;101206.97;5062824;28;20044;-80
2022/03/16 08:02:14;;;;;;;56.22;29.20;;;;;;;2.98;100.00;101218.66;5063017;28;20120;-81
2022/03/16 08:04:39;;;;;;;57.75;28.77;;;;;;;3.15;100.00;101218.03;5065652;28;20033;-80
2022/03/16 08:07:05;;;;;;;56.97;27.70;;;;;;;3.26;100.00;101219.94;5066522;28;20535;-81
2022/03/16 08:09:31;;;;;;;55.03;27.20;;;;;;;3.36;100.00;101216.59;5064532;28;20029;-81
2022/03/16 08:11:56;;;;;;;50.05;27.13;;;;;;;3.46;100.00;101218.50;5063657;28;20032;-81
2022/03/16 08:16:56;;;;;;;49.30;26.40;;;;;;;3.61;100.00;101216.94;4876107;22;20560;-76
2022/03/16 08:19:22;;;;;;;51.90;28.08;;;;;;;3.69;100.00;101225.84;5018168;28;20025;-76
2022/03/16 08:21:48;;;;;;;41.75;25.27;;;;;;;3.45;100.00;101222.00;5035284;28;20025;-76
2022/03/16 08:24:14;;;;;;;49.40;25.80;;;;;;;3.22;100.00;101230.44;5035217;28;20025;-76
2022/03/16 08:26:39;;;;;;;42.83;25.30;;;;;;;3.21;100.00;101228.69;5035158;28;20026;-76
2022/03/16 08:29:25;;;;;;;40.95;25.10;;;;;;;3.21;100.00;101233.06;5078841;22;20107;-86
2022/03/16 08:32:00;;;;;;;50.45;25.92;;;;;;;3.21;100.00;101228.69;5017894;28;20026;-85
2022/03/16 08:34:28;;;;;;;50.22;25.15;;;;;;;3.24;100.00;101218.19;5036675;28;20056;-86
2022/03/16 08:37:02;;;;;;;48.90;27.88;;;;;;;3.39;100.00;101227.19;5018972;28;20018;-85
2022/03/16 08:39:37;;;;;;;50.22;28.55;;;;;;;3.52;100.00;101222.09;5035838;28;20026;-85
2022/03/16 08:42:03;;;;;;;49.92;28.10;;;;;;;3.54;100.00;101225.63;5018493;28;20037;-86
2022/03/16 08:44:35;;;;;;;48.17;26.67;;;;;;;3.54;100.00;101223.00;5018105;28;20025;-85
2022/03/16 08:47:04;;;;;;;46.47;27.60;;;;;;;3.43;100.00;101217.56;5035631;28;20025;-85
2022/03/16 08:49:35;;;;;;;46.17;26.92;;;;;;;3.54;100.00;101209.78;5036112;28;20025;-83
2022/03/16 08:52:07;;;;;;;48.33;27.42;;;;;;;3.64;100.00;101222.25;5035696;28;20041;-84
2022/03/16 08:54:33;;;;;;;48.92;27.45;;;;;;;3.68;100.00;101218.81;5018642;28;20486;-84
2022/03/16 08:57:05;;;;;;;47.72;27.85;;;;;;;3.85;100.00;101228.72;5018082;28;20371;-85
2022/03/16 08:59:31;;;;;;;51.80;29.08;;;;;;;4.13;100.00;101220.22;5018344;28;20029;-84
2022/03/16 09:02:09;;;;;;;55.10;29.75;;;;;;;4.42;100.00;101213.50;5017750;28;20033;-84
2022/03/16 09:04:35;;;;;;;54.50;30.83;;;;;;;4.80;100.00;101207.69;5017635;28;20041;-85
2022/03/16 09:07:24;;;;;;;48.88;27.65;;;;;;;5.04;100.00;101221.13;5035321;28;20025;-85
2022/03/16 09:09:52;;;;;;;44.63;26.08;;;;;;;5.31;100.00;101218.69;5017719;28;20025;-83
2022/03/16 09:12:20;;;;;;;45.17;26.08;;;;;;;5.40;100.00;101220.50;5017672;28;20474;-83
2022/03/16 09:14:54;;;;;;;47.80;25.23;;;;;;;5.48;100.00;101216.13;5018572;28;20060;-82
2022/03/16 09:17:20;;;;;;;44.95;25.90;;;;;;;5.80;100.00;101201.28;5017960;28;20026;-83
2022/03/16 09:20:53;;;;;;;43.67;25.60;;;;;;;6.01;100.00;101205.78;5044329;28;20068;-84
2022/03/16 09:23:18;;;;;;;41.38;24.50;;;;;;;6.46;100.00;101205.09;5020231;28;20029;-83
2022/03/16 09:25:44;;;;;;;40.95;22.85;;;;;;;6.93;100.00;101206.91;5023453;28;20037;-84
2022/03/16 09:28:09;;;;;;;40.75;23.58;;;;;;;7.04;100.00;101210.41;5045505;28;20022;-85
2022/03/16 09:30:38;;;;;;;41.35;23.58;;;;;;;7.32;100.00;101200.66;5026507;28;20049;-84
2022/03/16 09:33:05;;;;;;;39.40;21.70;;;;;;;7.63;100.00;101205.03;5026519;28;20040;-85
2022/03/16 09:35:33;;;;;;;36.67;20.73;;;;;;;7.87;100.00;101205.81;5025425;28;20103;-84
2022/03/16 09:38:05;;;;;;;36.78;19.58;;;;;;;8.08;100.00;101194.19;5024682;28;20079;-81
2022/03/16 09:40:36;;;;;;;33.80;17.37;;;;;;;8.32;100.00;101202.97;5023013;28;20063;-82
2022/03/16 09:43:08;;;;;;;27.58;16.25;;;;;;;8.52;100.00;101199.28;5038150;28;20100;-83
2022/03/16 09:45:51;;;;;;;30.10;16.38;;;;;;;8.64;99.60;101192.13;5017749;28;20044;-83
2022/03/16 09:48:21;;;;;;;29.10;15.38;;;;;;;9.09;98.06;101193.53;5018423;28;20036;-82
2022/03/16 09:51:31;;;;;;;27.20;15.48;;;;;;;9.39;95.12;101183.47;5019845;28;20026;-83
2022/03/16 09:57:18;;;;;;;26.75;13.98;;;;;;;9.67;90.61;101169.81;5038636;28;20100;-83
2022/03/16 10:00:18;;;;;;;26.35;14.75;;;;;;;9.82;90.56;101159.84;5039043;28;20045;-85
2022/03/16 10:06:10;;;;;;;25.13;15.13;;;;;;;10.02;87.00;101158.72;4977722;28;20054;-84
2022/03/16 10:15:36;;;;;;;;;;;;;;;;;;;;;
2022/03/16 10:18:03;;;;;;;27.48;14.20;;;;;;;10.26;84.02;101161.94;4979849;28;20031;-85
2022/03/16 10:20:39;;;;;;;25.42;14.05;;;;;;;10.65;87.06;101163.16;5019301;28;20025;-85
2022/03/16 10:23:28;;;;;;;;;;;;;;;;;;;;;
2022/03/16 10:26:00;;;;;;;30.15;15.25;;;;;;;10.74;80.38;101160.34;5034780;28;20389;-86
2022/03/16 10:28:34;;;;;;;27.75;15.77;;;;;;;10.58;78.96;101163.28;5018488;28;20104;-86
2022/03/16 10:31:13;;;;;;;27.50;15.35;;;;;;;10.48;79.15;101161.63;5018464;28;20533;-85
2022/03/16 10:33:53;;;;;;;26.77;15.20;;;;;;;10.67;79.43;101156.03;5017436;28;20068;-86
2022/03/16 10:36:26;;;;;;;28.42;15.10;;;;;;;11.12;80.27;101154.34;5019032;28;20014;-86
2022/03/16 10:39:03;;;;;;;30.00;15.55;;;;;;;11.25;77.80;101158.56;5020518;28;20474;-85
2022/03/16 10:47:24;;;;;;;26.73;15.00;;;;;;;11.25;76.43;101147.88;5040861;28;20119;-85
2022/03/16 10:50:07;;;;;;;28.98;15.02;;;;;;;11.31;74.65;101140.66;5023127;28;20048;-84
2022/03/16 10:52:36;;;;;;;26.40;14.33;;;;;;;11.51;76.22;101149.16;5022771;28;20041;-85
2022/03/16 10:55:08;;;;;;;23.92;14.05;;;;;;;11.36;75.02;101157.47;5022643;28;20025;-85
2022/03/16 10:57:38;;;;;;;26.52;13.93;;;;;;;11.54;74.06;101148.22;5023590;28;20071;-83
2022/03/16 11:00:04;;;;;;;26.08;14.63;;;;;;;11.85;74.71;101149.38;5040662;28;20025;-86
2022/03/16 11:02:34;;;;;;;25.63;13.55;;;;;;;11.76;73.97;101152.22;5021583;28;20024;-86
2022/03/16 11:05:00;;;;;;;24.30;13.75;;;;;;;11.75;73.71;101145.13;5031532;28;20029;-87
2022/03/16 11:07:25;;;;;;;23.20;12.40;;;;;;;11.95;72.53;101148.25;5038797;28;20021;-84
2022/03/16 11:09:51;;;;;;;25.05;13.27;;;;;;;11.96;71.09;101152.69;5039874;28;20026;-82
2022/03/16 11:15:05;;;;;;;21.98;12.02;;;;;;;12.05;72.11;101138.22;5040236;28;20063;-84
2022/03/16 11:17:36;;;;;;;22.38;12.50;;;;;;;12.17;72.51;101129.06;5022155;28;20021;-84
2022/03/16 11:20:03;;;;;;;23.35;12.88;;;;;;;12.23;71.46;101122.69;5022022;28;20036;-83
2022/03/16 11:22:31;;;;;;;22.50;12.75;;;;;;;12.32;69.28;101124.25;5040268;28;20048;-84
2022/03/16 11:25:02;;;;;;;21.45;12.27;;;;;;;12.38;69.55;101126.78;5040012;28;20459;-84
2022/03/16 11:27:41;;;;;;;21.65;12.18;;;;;;;12.36;67.72;101125.06;5027346;28;20048;-84
2022/03/16 11:30:16;;;;;;;20.98;11.80;;;;;;;12.38;68.08;101120.53;5029224;28;20033;-84
2022/03/16 11:32:51;;;;;;;20.48;11.13;;;;;;;12.30;67.83;101107.34;5046292;28;20041;-84
2022/03/16 11:35:17;;;;;;;21.17;12.10;;;;;;;12.00;67.94;101118.72;5026793;28;20036;-84
2022/03/16 11:37:46;;;;;;;21.38;11.48;;;;;;;11.95;65.71;101116.13;5022245;28;20060;-83
2022/03/16 11:40:15;;;;;;;19.73;11.90;;;;;;;11.92;65.42;101115.31;5020381;28;20025;-83